KHEZ/HEZ METAR and TAF weather

Enter ICAO airport designator
Station Type Date Time Source
KHEZ METAR 2018/12/13 20:06 UTC NOAA

KHEZ 132006Z AUTO 13009KT 10SM -RA BKN009 BKN016 OVC037 16/15 A2980 RMK AO2 CIG 006V014 P0001


Station Type Date Time Source
KHEZ Decoded METAR 2018/12/13 20:06 UTC NOAA

Natchez, Hardy-Anders Field Natchez-Adams County Airport, MS, United States (KHEZ) 31-37N 091-18W
Dec 13, 2018 - 03:06 PM EST / 2018.12.13 2006 UTC
Wind: from the SE (130 degrees) at 10 MPH (9 KT):0
Visibility: 10 mile(s):0
Sky conditions: overcast
Weather: light rain
Precipitation last hour: 0.01 inches
Temperature: 60 F (16 C)
Dew Point: 59 F (15 C)
Relative Humidity: 93%
Pressure (altimeter): 29.8 in. Hg (1009 hPa)
ob: KHEZ 132006Z AUTO 13009KT 10SM -RA BKN009 BKN016 OVC037 16/15 A2980 RMK AO2 CIG 006V014 P0001
cycle: 20

Station Type Date Time Source
KHEZ TAF UTC NOAA

Error!


Example: see airport list